createdAt,value
2023-01-25T00:02:11.459Z,88232.16
2023-01-25T00:04:38.672Z,88224.06
2023-01-25T00:07:05.912Z,88230.47
2023-01-25T00:09:33.075Z,88229.44
2023-01-25T00:12:00.410Z,88230.63
2023-01-25T00:14:28.165Z,88232.97
2023-01-25T00:16:55.418Z,88233.41
2023-01-25T00:19:22.749Z,88231.13
2023-01-25T00:21:50.361Z,88238.03
2023-01-25T00:24:17.587Z,88237.72
2023-01-25T00:26:44.883Z,88238.19
2023-01-25T00:29:14.173Z,88244.94
2023-01-25T00:31:54.370Z,88246.13
2023-01-25T00:34:27.658Z,88236.50
2023-01-25T00:37:02.157Z,88244.31
2023-01-25T00:39:30.187Z,88246.75
2023-01-25T00:41:57.983Z,88243.06
2023-01-25T00:44:25.250Z,88246.44
2023-01-25T00:46:52.536Z,88246.44
2023-01-25T00:49:28.120Z,88243.53
2023-01-25T00:51:55.673Z,88245.38
2023-01-25T00:54:23.301Z,88240.94
2023-01-25T00:56:51.356Z,88238.31
2023-01-25T00:59:18.591Z,88236.22
2023-01-25T01:01:46.299Z,88232.84
2023-01-25T01:04:13.805Z,88232.84
2023-01-25T01:06:42.602Z,88233.75
2023-01-25T01:09:18.561Z,88231.16
2023-01-25T01:11:45.830Z,88239.75
2023-01-25T01:14:13.916Z,88227.00
2023-01-25T01:16:41.644Z,88231.16
2023-01-25T01:19:08.849Z,88227.50
2023-01-25T01:21:36.006Z,88225.97
2023-01-25T01:24:03.952Z,88230.09
2023-01-25T01:26:31.127Z,88215.88
2023-01-25T01:28:59.307Z,88226.72
2023-01-25T01:31:27.179Z,88221.06
2023-01-25T01:33:57.023Z,88217.69
2023-01-25T01:36:28.330Z,88215.69
2023-01-25T01:38:55.854Z,88211.25
2023-01-25T01:41:26.990Z,88213.53
2023-01-25T01:43:54.393Z,88208.06
2023-01-25T01:46:38.720Z,88198.72
2023-01-25T01:49:24.246Z,88196.25
2023-01-25T01:52:01.565Z,88200.38
2023-01-25T01:54:42.787Z,88199.94
2023-01-25T01:57:25.651Z,88201.75
2023-01-25T02:00:01.666Z,88198.53
2023-01-25T02:02:28.994Z,88206.16
2023-01-25T02:05:03.644Z,88206.16
2023-01-25T02:07:37.707Z,88197.91
2023-01-25T02:10:11.403Z,88203.56
2023-01-25T02:12:39.558Z,88198.69
2023-01-25T02:15:08.006Z,88199.44
2023-01-25T02:17:38.912Z,88207.84
2023-01-25T02:20:29.187Z,88203.69
2023-01-25T02:23:16.748Z,88200.19
2023-01-25T02:25:44.210Z,88192.06
2023-01-25T02:28:28.151Z,88188.41
2023-01-25T02:30:55.354Z,88176.19
2023-01-25T02:33:27.362Z,88176.91
2023-01-25T02:36:08.310Z,88185.16
2023-01-25T02:38:45.639Z,88173.72
2023-01-25T02:41:33.517Z,88176.63
2023-01-25T02:44:05.475Z,88178.13
2023-01-25T02:46:39.734Z,88176.31
2023-01-25T02:49:09.706Z,88175.38
2023-01-25T02:51:41.373Z,88170.66
2023-01-25T02:54:11.393Z,88178.00
2023-01-25T02:56:39.705Z,88172.47
2023-01-25T02:59:08.357Z,88176.28
2023-01-25T03:01:38.620Z,88172.47
2023-01-25T03:04:07.101Z,88177.47
2023-01-25T03:06:36.261Z,88181.44
2023-01-25T03:09:10.297Z,88178.69
2023-01-25T03:11:37.692Z,88172.13
2023-01-25T03:14:05.269Z,88172.44
2023-01-25T03:16:32.872Z,88166.94
2023-01-25T03:19:00.177Z,88166.94
2023-01-25T03:21:28.005Z,88168.75
2023-01-25T03:24:00.480Z,88178.84
2023-01-25T03:26:29.667Z,88171.81
2023-01-25T03:28:57.337Z,88159.59
2023-01-25T03:31:25.013Z,88157.59
2023-01-25T03:33:52.356Z,88158.47
2023-01-25T03:36:19.635Z,88156.78
2023-01-25T03:38:48.035Z,88158.34
2023-01-25T03:41:15.184Z,88144.56
2023-01-25T03:43:44.001Z,88146.13
2023-01-25T03:46:11.637Z,88150.66
2023-01-25T03:48:42.259Z,88150.66
2023-01-25T03:51:09.793Z,88146.84
2023-01-25T03:53:37.046Z,88149.75
2023-01-25T03:56:11.361Z,88146.69
2023-01-25T03:58:40.132Z,88146.81
2023-01-25T04:01:08.863Z,88140.69
2023-01-25T04:03:36.351Z,88131.19
2023-01-25T04:06:05.654Z,88140.50
2023-01-25T04:08:33.538Z,88146.78
2023-01-25T04:11:07.593Z,88141.72
2023-01-25T04:13:36.412Z,88139.88
2023-01-25T04:16:22.359Z,88147.03
2023-01-25T04:18:49.538Z,88142.16
2023-01-25T04:21:16.892Z,88128.97
2023-01-25T04:23:44.409Z,88128.03
2023-01-25T04:26:12.453Z,88131.09
2023-01-25T04:28:41.174Z,88125.75
2023-01-25T04:31:08.395Z,88131.41
2023-01-25T04:33:35.754Z,88136.16
2023-01-25T04:36:03.708Z,88134.31
2023-01-25T04:38:30.930Z,88139.31
2023-01-25T04:40:58.314Z,88131.06
2023-01-25T04:43:26.808Z,88135.03
2023-01-25T04:45:54.085Z,88131.97
2023-01-25T04:48:21.270Z,88132.28
2023-01-25T04:50:48.528Z,88131.50
2023-01-25T04:53:15.797Z,88133.78
2023-01-25T04:55:46.744Z,88125.22
2023-01-25T04:58:14.963Z,88126.44
2023-01-25T05:00:42.415Z,88120.31
2023-01-25T05:03:09.729Z,88120.31
2023-01-25T05:05:36.902Z,88118.19
2023-01-25T05:08:04.336Z,88129.44
2023-01-25T05:10:31.594Z,88118.47
2023-01-25T05:12:58.802Z,88118.47
2023-01-25T05:15:26.317Z,88124.72
2023-01-25T05:17:53.523Z,88121.06
2023-01-25T05:20:20.758Z,88122.59
2023-01-25T05:22:47.967Z,88123.03
2023-01-25T05:25:15.147Z,88114.47
2023-01-25T05:27:42.313Z,88118.41
2023-01-25T05:30:10.342Z,88115.66
2023-01-25T05:32:37.526Z,88115.66
2023-01-25T05:35:05.154Z,88110.78
2023-01-25T05:37:32.429Z,88115.66
2023-01-25T05:39:59.562Z,88114.13
2023-01-25T05:42:26.802Z,88115.19
2023-01-25T05:44:54.000Z,88120.16
2023-01-25T05:47:21.225Z,88109.50
2023-01-25T05:49:48.341Z,88115.28
2023-01-25T05:52:17.140Z,88115.56
2023-01-25T05:54:44.538Z,88121.94
2023-01-25T05:57:14.231Z,88123.59
2023-01-25T05:59:41.949Z,88118.41
2023-01-25T06:02:09.161Z,88121.22
2023-01-25T06:04:36.524Z,88118.63
2023-01-25T06:07:03.701Z,88117.69
2023-01-25T06:09:30.860Z,88123.47
2023-01-25T06:11:58.101Z,88123.28
2023-01-25T06:14:25.352Z,88117.34
2023-01-25T06:16:52.743Z,88118.22
2023-01-25T06:19:20.140Z,88124.00
2023-01-25T06:21:47.368Z,88115.69
2023-01-25T06:24:14.688Z,88116.75
2023-01-25T06:26:41.911Z,88118.09
2023-01-25T06:29:09.346Z,88117.31
2023-01-25T06:31:36.688Z,88115.03
2023-01-25T06:34:04.088Z,88121.75
2023-01-25T06:36:31.283Z,88116.84
2023-01-25T06:38:58.803Z,88125.22
2023-01-25T06:41:26.570Z,88125.09
2023-01-25T06:43:54.325Z,88120.09
2023-01-25T06:46:24.716Z,88122.41
2023-01-25T06:48:52.336Z,88114.03
2023-01-25T06:51:19.769Z,88115.25
2023-01-25T06:53:47.240Z,88118.31
2023-01-25T06:56:21.989Z,88112.56
2023-01-25T06:58:50.007Z,88118.63
2023-01-25T07:01:22.191Z,88116.97
2023-01-25T07:03:55.615Z,88111.22
2023-01-25T07:06:25.362Z,88120.03
2023-01-25T07:09:02.509Z,88118.69
2023-01-25T07:11:30.101Z,88116.41
2023-01-25T07:13:57.480Z,88113.50
2023-01-25T07:16:24.735Z,88120.59
2023-01-25T07:18:52.085Z,88113.59
2023-01-25T07:21:22.988Z,88115.88
2023-01-25T07:23:51.736Z,88107.91
2023-01-25T07:26:25.832Z,88112.16
2023-01-25T07:28:54.477Z,88110.78
2023-01-25T07:31:22.377Z,88114.78
2023-01-25T07:33:51.693Z,88119.28
2023-01-25T07:36:19.833Z,88118.09
2023-01-25T07:38:47.909Z,88114.16
2023-01-25T07:41:15.711Z,88114.16
2023-01-25T07:43:43.096Z,88108.97
2023-01-25T07:46:13.343Z,88112.50
2023-01-25T07:48:47.183Z,88113.91
2023-01-25T07:51:16.352Z,88111.59
2023-01-25T07:53:44.447Z,88115.16
2023-01-25T07:56:12.928Z,88112.72
2023-01-25T07:58:40.552Z,88114.25
2023-01-25T08:01:13.342Z,88116.56
2023-01-25T08:03:41.458Z,88118.84
2023-01-25T08:06:08.743Z,88118.25
2023-01-25T08:08:44.431Z,88123.28
2023-01-25T08:11:18.321Z,88118.72
2023-01-25T08:13:45.988Z,88119.38
2023-01-25T08:16:19.565Z,88119.53
2023-01-25T08:18:56.099Z,88114.53
2023-01-25T08:21:26.754Z,88117.59
2023-01-25T08:23:53.982Z,88113.91
2023-01-25T08:26:21.485Z,88098.78
2023-01-25T08:28:49.203Z,88108.28
2023-01-25T08:31:24.732Z,88107.22
2023-01-25T08:33:52.983Z,88113.66
2023-01-25T08:36:22.299Z,88108.63
2023-01-25T08:38:56.840Z,88111.22
2023-01-25T08:41:26.289Z,88099.94
2023-01-25T08:43:55.797Z,88104.53
2023-01-25T08:46:25.867Z,88094.94
2023-01-25T08:48:57.651Z,88096.47
2023-01-25T08:51:26.295Z,88089.63
2023-01-25T08:53:54.084Z,88086.41
2023-01-25T08:56:21.816Z,88085.22
2023-01-25T08:58:50.560Z,88079.56
2023-01-25T09:01:20.068Z,88089.06
2023-01-25T09:03:50.882Z,88072.69
2023-01-25T09:06:18.872Z,88078.34
2023-01-25T09:08:46.872Z,88074.69
2023-01-25T09:11:22.595Z,88086.16
2023-01-25T09:13:50.619Z,88077.75
2023-01-25T09:16:23.983Z,88062.94
2023-01-25T09:18:51.287Z,88068.13
2023-01-25T09:21:19.779Z,88072.25
2023-01-25T09:24:07.850Z,88068.00
2023-01-25T09:26:40.240Z,88061.44
2023-01-25T09:29:09.485Z,88064.78
2023-01-25T09:31:39.549Z,88066.47
2023-01-25T09:34:06.828Z,88057.59
2023-01-25T09:36:34.056Z,88054.22
2023-01-25T09:39:01.240Z,88059.88
2023-01-25T09:42:14.765Z,88061.88
2023-01-25T09:45:09.477Z,88052.09
2023-01-25T09:48:17.727Z,88043.50
2023-01-25T09:51:16.769Z,88039.84
2023-01-25T09:53:51.285Z,88038.47
2023-01-25T09:56:34.781Z,88043.09
2023-01-25T09:59:13.963Z,88034.66
2023-01-25T10:01:57.376Z,88040.94
2023-01-25T10:04:37.911Z,88031.31
2023-01-25T10:08:00.863Z,88029.94
2023-01-25T10:10:39.829Z,88029.16
2023-01-25T10:13:14.725Z,88017.84
2023-01-25T10:15:58.630Z,88011.09
2023-01-25T10:19:00.167Z,88009.41
2023-01-25T10:21:36.647Z,87997.03
2023-01-25T10:24:14.122Z,87993.50
2023-01-25T10:26:49.057Z,87989.53
2023-01-25T10:29:37.812Z,87982.16
2023-01-25T10:32:29.648Z,87980.63
2023-01-25T10:35:19.816Z,87978.03
2023-01-25T10:37:54.080Z,87970.84
2023-01-25T10:40:28.009Z,87972.81
2023-01-25T10:43:17.049Z,87972.50
2023-01-25T10:45:44.376Z,87964.53
2023-01-25T10:48:29.977Z,87968.78
2023-01-25T10:50:57.884Z,87963.09
2023-01-25T10:53:30.287Z,87953.28
2023-01-25T10:56:11.558Z,87949.56
2023-01-25T10:58:41.701Z,87947.56
2023-01-25T11:01:24.719Z,87938.78
2023-01-25T11:03:52.394Z,87938.38
2023-01-25T11:06:31.460Z,87934.78
2023-01-25T11:09:23.003Z,87930.63
2023-01-25T11:12:18.949Z,87931.47
2023-01-25T11:15:03.335Z,87924.97
2023-01-25T11:17:31.904Z,87924.75
2023-01-25T11:20:25.715Z,87921.97
2023-01-25T11:22:57.620Z,87920.84
2023-01-25T11:25:34.890Z,87907.63
2023-01-25T11:28:25.176Z,87903.72
2023-01-25T11:30:54.266Z,87901.06
2023-01-25T11:33:22.899Z,87892.59
2023-01-25T11:36:29.152Z,87882.75
2023-01-25T11:39:22.077Z,87877.78
2023-01-25T11:42:13.924Z,87880.63
2023-01-25T11:45:08.839Z,87878.91
2023-01-25T11:48:39.123Z,87869.53
2023-01-25T11:51:34.571Z,87863.88
2023-01-25T11:54:29.376Z,87853.97
2023-01-25T11:57:26.017Z,87858.31
2023-01-25T12:00:05.738Z,87847.88
2023-01-25T12:03:02.859Z,87841.38
2023-01-25T12:05:42.210Z,87842.44
2023-01-25T12:08:51.198Z,87831.38
2023-01-25T12:11:27.141Z,87813.25
2023-01-25T12:14:48.203Z,87811.91
2023-01-25T12:17:26.251Z,87792.44
2023-01-25T12:20:09.142Z,87789.00
2023-01-25T12:23:21.860Z,87789.03
2023-01-25T12:26:11.178Z,87789.66
2023-01-25T12:29:01.159Z,87784.66
2023-01-25T12:32:03.021Z,87772.53
2023-01-25T12:34:39.946Z,87773.84
2023-01-25T12:37:22.257Z,87769.53
2023-01-25T12:40:07.092Z,87772.31
2023-01-25T12:42:47.620Z,87776.00
2023-01-25T12:45:25.507Z,87768.03
2023-01-25T12:48:36.070Z,87763.94
2023-01-25T12:51:03.552Z,87763.41
2023-01-25T12:53:41.427Z,87760.09
2023-01-25T12:56:28.482Z,87754.13
2023-01-25T12:59:16.065Z,87754.88
2023-01-25T13:02:15.514Z,87742.13
2023-01-25T13:05:10.595Z,87745.41
2023-01-25T13:08:12.606Z,87743.22
2023-01-25T13:11:06.614Z,87739.13
2023-01-25T13:13:33.841Z,87738.56
2023-01-25T13:16:35.180Z,87735.25
2023-01-25T13:19:02.850Z,87735.75
2023-01-25T13:21:44.205Z,87734.69
2023-01-25T13:24:20.932Z,87732.63
2023-01-25T13:27:30.917Z,87721.00
2023-01-25T13:30:31.305Z,87722.88
2023-01-25T13:33:07.779Z,87722.59
2023-01-25T13:35:40.463Z,87717.41
2023-01-25T13:38:28.375Z,87709.44
2023-01-25T13:41:15.815Z,87709.34
2023-01-25T13:43:47.711Z,87713.81
2023-01-25T13:46:19.275Z,87698.22
2023-01-25T13:48:59.838Z,87703.28
2023-01-25T13:51:33.784Z,87709.09
2023-01-25T13:54:01.353Z,87701.16
2023-01-25T13:56:35.451Z,87709.56
2023-01-25T13:59:02.839Z,87710.19
2023-01-25T14:01:34.123Z,87701.19
2023-01-25T14:04:05.102Z,87702.88
2023-01-25T14:06:40.523Z,87700.88
2023-01-25T14:09:20.488Z,87701.19
2023-01-25T14:12:01.807Z,87701.06
2023-01-25T14:14:34.988Z,87696.66
2023-01-25T14:17:16.763Z,87691.47
2023-01-25T14:19:50.752Z,87690.84
2023-01-25T14:22:30.066Z,87691.78
2023-01-25T14:25:20.185Z,87690.41
2023-01-25T14:27:55.874Z,87679.28
2023-01-25T14:30:34.340Z,87686.44
2023-01-25T14:33:17.318Z,87679.28
2023-01-25T14:35:55.647Z,87686.59
2023-01-25T14:38:35.683Z,87680.78
2023-01-25T14:41:13.077Z,87684.47
2023-01-25T14:43:43.456Z,87668.44
2023-01-25T14:46:27.306Z,87668.91
2023-01-25T14:49:26.941Z,87670.00
2023-01-25T14:52:05.218Z,87670.75
2023-01-25T14:54:44.643Z,87666.59
2023-01-25T14:57:35.777Z,87664.78
2023-01-25T15:00:18.846Z,87660.22
2023-01-25T15:03:15.595Z,87666.16
2023-01-25T15:05:47.333Z,87662.34
2023-01-25T15:08:37.475Z,87669.66
2023-01-25T15:11:04.969Z,87668.72
2023-01-25T15:13:32.252Z,87658.53
2023-01-25T15:16:03.354Z,87655.63
2023-01-25T15:18:53.379Z,87668.13
2023-01-25T15:21:28.874Z,87669.31
2023-01-25T15:24:00.002Z,87666.44
2023-01-25T15:26:30.874Z,87664.13
2023-01-25T15:29:05.654Z,87669.00
2023-01-25T15:31:37.315Z,87664.56
2023-01-25T15:34:05.675Z,87665.34
2023-01-25T15:36:33.890Z,87669.00
2023-01-25T15:39:01.259Z,87667.47
2023-01-25T15:41:28.526Z,87666.44
2023-01-25T15:43:55.769Z,87668.38
2023-01-25T15:46:26.512Z,87662.16
2023-01-25T15:48:54.524Z,87661.84
2023-01-25T15:51:22.611Z,87662.03
2023-01-25T15:53:49.914Z,87655.75
2023-01-25T15:56:21.652Z,87661.25
2023-01-25T15:58:59.463Z,87652.13
2023-01-25T16:01:29.731Z,87651.50
2023-01-25T16:03:59.224Z,87657.75
2023-01-25T16:06:35.676Z,87653.78
2023-01-25T16:09:22.971Z,87652.25
2023-01-25T16:11:57.090Z,87661.41
2023-01-25T16:14:26.825Z,87666.13
2023-01-25T16:16:54.300Z,87661.84
2023-01-25T16:19:25.352Z,87662.16
2023-01-25T16:21:52.986Z,87659.25
2023-01-25T16:24:20.320Z,87659.56
2023-01-25T16:27:01.252Z,87659.88
2023-01-25T16:29:29.011Z,87653.28
2023-01-25T16:31:57.757Z,87660.94
2023-01-25T16:34:27.925Z,87654.53
2023-01-25T16:37:05.640Z,87650.72
2023-01-25T16:39:33.054Z,87654.25
2023-01-25T16:42:00.384Z,87647.22
2023-01-25T16:44:27.754Z,87645.25
2023-01-25T16:46:55.127Z,87645.25
2023-01-25T16:49:27.336Z,87652.44
2023-01-25T16:51:55.141Z,87644.03
2023-01-25T16:54:23.408Z,87643.72
2023-01-25T16:56:53.368Z,87641.75
2023-01-25T16:59:23.185Z,87649.34
2023-01-25T17:01:51.148Z,87637.03
2023-01-25T17:04:19.156Z,87636.56
2023-01-25T17:06:49.949Z,87637.34
2023-01-25T17:09:24.061Z,87640.69
2023-01-25T17:11:54.046Z,87644.19
2023-01-25T17:14:23.253Z,87632.16
2023-01-25T17:16:51.016Z,87641.91
2023-01-25T17:19:19.523Z,87630.31
2023-01-25T17:21:47.088Z,87632.47
2023-01-25T17:24:21.312Z,87635.66
2023-01-25T17:26:51.442Z,87640.09
2023-01-25T17:29:18.766Z,87634.44
2023-01-25T17:31:46.106Z,87634.75
2023-01-25T17:34:16.232Z,87630.31
2023-01-25T17:36:45.554Z,87636.41
2023-01-25T17:39:15.647Z,87631.22
2023-01-25T17:41:45.327Z,87636.41
2023-01-25T17:44:14.278Z,87630.63
2023-01-25T17:46:41.537Z,87632.75
2023-01-25T17:49:12.953Z,87637.31
2023-01-25T17:51:40.276Z,87628.94
2023-01-25T17:54:08.060Z,87625.28
2023-01-25T17:56:37.866Z,87629.84
2023-01-25T17:59:07.514Z,87631.97
2023-01-25T18:01:35.862Z,87621.75
2023-01-25T18:04:08.447Z,87626.00
2023-01-25T18:06:36.225Z,87623.72
2023-01-25T18:09:05.717Z,87628.47
2023-01-25T18:11:36.397Z,87624.50
2023-01-25T18:14:07.521Z,87629.06
2023-01-25T18:16:38.290Z,87623.25
2023-01-25T18:19:06.967Z,87621.44
2023-01-25T18:21:35.356Z,87617.94
2023-01-25T18:24:31.769Z,87620.81
2023-01-25T18:27:22.012Z,87612.28
2023-01-25T18:30:22.157Z,87611.97
2023-01-25T18:32:49.780Z,87611.53
2023-01-25T18:35:16.951Z,87609.84
2023-01-25T18:37:44.209Z,87606.34
2023-01-25T18:40:14.255Z,87613.34
2023-01-25T18:42:41.625Z,87608.78
2023-01-25T18:45:09.862Z,87613.81
2023-01-25T18:47:37.228Z,87604.03
2023-01-25T18:50:06.218Z,87607.06
2023-01-25T18:52:36.232Z,87605.25
2023-01-25T18:55:03.616Z,87603.28
2023-01-25T18:57:31.099Z,87600.50
2023-01-25T18:59:59.801Z,87595.31
2023-01-25T19:02:27.423Z,87595.66
2023-01-25T19:04:54.672Z,87601.88
2023-01-25T19:07:23.801Z,87593.22
2023-01-25T19:09:51.152Z,87592.75
2023-01-25T19:12:18.529Z,87586.50
2023-01-25T19:14:45.752Z,87585.75
2023-01-25T19:17:13.035Z,87587.13
2023-01-25T19:19:41.485Z,87591.69
2023-01-25T19:22:08.676Z,87593.09
2023-01-25T19:24:36.657Z,87588.34
2023-01-25T19:27:04.118Z,87587.00
2023-01-25T19:29:31.453Z,87583.81
2023-01-25T19:31:58.726Z,87584.88
2023-01-25T19:34:26.145Z,87581.66
2023-01-25T19:36:53.675Z,87580.75
2023-01-25T19:39:21.468Z,87581.66
2023-01-25T19:41:51.794Z,87578.94
2023-01-25T19:44:18.905Z,87584.88
2023-01-25T19:46:46.305Z,87572.06
2023-01-25T19:49:13.777Z,87574.06
2023-01-25T19:51:43.639Z,87573.44
2023-01-25T19:54:14.571Z,87567.03
2023-01-25T19:56:44.297Z,87571.44
2023-01-25T19:59:16.120Z,87573.56
2023-01-25T20:01:45.227Z,87574.03
2023-01-25T20:04:22.556Z,87569.75
2023-01-25T20:06:51.573Z,87564.25
2023-01-25T20:09:20.102Z,87566.41
2023-01-25T20:11:47.579Z,87562.44
2023-01-25T20:14:15.804Z,87566.66
2023-01-25T20:16:43.563Z,87560.56
2023-01-25T20:19:13.750Z,87553.44
2023-01-25T20:21:41.205Z,87559.97
2023-01-25T20:24:09.197Z,87555.38
2023-01-25T20:26:39.971Z,87546.41
2023-01-25T20:29:07.828Z,87554.75
2023-01-25T20:31:38.547Z,87554.47
2023-01-25T20:34:12.349Z,87545.75
2023-01-25T20:36:40.975Z,87549.41
2023-01-25T20:39:11.013Z,87547.72
2023-01-25T20:41:38.318Z,87541.63
2023-01-25T20:44:06.039Z,87545.28
2023-01-25T20:46:33.528Z,87542.81
2023-01-25T20:49:01.971Z,87542.22
2023-01-25T20:51:29.671Z,87544.63
2023-01-25T20:53:57.684Z,87536.53
2023-01-25T20:56:25.595Z,87540.50
2023-01-25T20:58:53.882Z,87540.66
2023-01-25T21:01:26.027Z,87526.34
2023-01-25T21:03:53.246Z,87536.50
2023-01-25T21:06:20.794Z,87520.22
2023-01-25T21:08:48.044Z,87525.69
2023-01-25T21:11:15.699Z,87524.78
2023-01-25T21:13:43.167Z,87515.78
2023-01-25T21:16:12.722Z,87525.34
2023-01-25T21:18:43.734Z,87523.22
2023-01-25T21:21:24.719Z,87521.06
2023-01-25T21:23:52.287Z,87517.06
2023-01-25T21:26:31.975Z,87516.59
2023-01-25T21:29:01.590Z,87515.19
2023-01-25T21:31:36.010Z,87509.13
2023-01-25T21:34:05.184Z,87509.69
2023-01-25T21:36:33.267Z,87508.19
2023-01-25T21:39:00.489Z,87514.97
2023-01-25T21:41:31.546Z,87505.06
2023-01-25T21:44:00.473Z,87511.00
2023-01-25T21:46:28.943Z,87505.69
2023-01-25T21:49:08.578Z,87500.75
2023-01-25T21:51:35.754Z,87495.13
2023-01-25T21:54:03.293Z,87485.38
2023-01-25T21:56:30.549Z,87487.44
2023-01-25T21:58:57.925Z,87492.16
2023-01-25T22:01:25.202Z,87493.81
2023-01-25T22:03:53.108Z,87493.91
2023-01-25T22:06:20.451Z,87487.31
2023-01-25T22:08:47.586Z,87482.59
2023-01-25T22:11:15.183Z,87485.09
2023-01-25T22:13:42.576Z,87481.13
2023-01-25T22:16:11.920Z,87463.75
2023-01-25T22:18:42.151Z,87465.69
2023-01-25T22:21:22.660Z,87470.91
2023-01-25T22:23:51.554Z,87475.75
2023-01-25T22:26:22.069Z,87472.66
2023-01-25T22:28:57.053Z,87466.91
2023-01-25T22:31:30.095Z,87460.91
2023-01-25T22:33:59.452Z,87456.22
2023-01-25T22:36:30.114Z,87453.56
2023-01-25T22:38:58.060Z,87453.22
2023-01-25T22:41:29.520Z,87447.31
2023-01-25T22:43:57.827Z,87447.13
2023-01-25T22:46:27.926Z,87443.91
2023-01-25T22:48:55.703Z,87436.44
2023-01-25T22:51:28.532Z,87435.03
2023-01-25T22:53:58.417Z,87436.94
2023-01-25T22:56:34.770Z,87432.19
2023-01-25T22:59:02.262Z,87425.31
2023-01-25T23:01:33.471Z,87415.72
2023-01-25T23:04:02.269Z,87416.28
2023-01-25T23:06:33.016Z,87405.19
2023-01-25T23:09:04.591Z,87401.38
2023-01-25T23:11:36.321Z,87407.00
2023-01-25T23:14:12.083Z,87399.88
2023-01-25T23:16:39.237Z,87391.47
2023-01-25T23:19:06.631Z,87398.25
2023-01-25T23:21:34.084Z,87392.06
2023-01-25T23:24:03.063Z,87383.97
2023-01-25T23:26:32.664Z,87383.19
2023-01-25T23:28:59.939Z,87389.38
2023-01-25T23:31:27.335Z,87379.31
2023-01-25T23:34:01.149Z,87368.34
2023-01-25T23:36:35.291Z,87369.03
2023-01-25T23:39:03.137Z,87365.38
2023-01-25T23:41:32.343Z,87358.53
2023-01-25T23:43:59.743Z,87359.69
2023-01-25T23:46:27.681Z,87354.53
2023-01-25T23:48:54.932Z,87353.59
2023-01-25T23:51:22.221Z,87355.97
2023-01-25T23:53:49.572Z,87347.50
2023-01-25T23:56:21.690Z,87340.91
2023-01-25T23:58:49.308Z,87335.59
